createdAt,value
2018-11-14T00:00:27.993Z,13.20
2018-11-14T00:02:58.133Z,13.30
2018-11-14T00:05:26.958Z,13.37
2018-11-14T00:07:55.840Z,12.93
2018-11-14T00:10:25.678Z,12.77
2018-11-14T00:12:54.488Z,12.37
2018-11-14T00:15:24.760Z,12.63
2018-11-14T00:17:54.202Z,12.53
2018-11-14T00:20:23.045Z,12.20
2018-11-14T00:22:52.537Z,12.27
2018-11-14T00:25:21.601Z,11.67
2018-11-14T00:27:50.459Z,11.83
2018-11-14T00:30:21.698Z,10.63
2018-11-14T00:32:51.360Z,11.57
2018-11-14T00:35:20.189Z,11.40
2018-11-14T00:37:49.345Z,12.07
2018-11-14T00:40:18.989Z,11.77
2018-11-14T00:42:48.261Z,11.37
2018-11-14T00:45:18.414Z,10.83
2018-11-14T00:47:48.494Z,11.27
2018-11-14T00:50:20.647Z,10.60
2018-11-14T00:52:49.748Z,11.70
2018-11-14T00:55:19.877Z,10.57
2018-11-14T00:57:50.135Z,10.97
2018-11-14T01:00:21.263Z,11.30
2018-11-14T01:02:50.521Z,11.03
2018-11-14T01:05:19.852Z,10.63
2018-11-14T01:07:48.748Z,11.17
2018-11-14T01:10:20.023Z,11.47
2018-11-14T01:12:49.460Z,10.73
2018-11-14T01:15:21.081Z,9.83
2018-11-14T01:17:49.923Z,10.57
2018-11-14T01:20:20.243Z,10.20
2018-11-14T01:22:49.290Z,10.47
2018-11-14T01:25:18.613Z,10.63
2018-11-14T01:27:48.140Z,10.23
2018-11-14T01:30:24.980Z,9.80
2018-11-14T01:32:55.040Z,10.30
2018-11-14T01:35:23.993Z,10.57
2018-11-14T01:37:52.884Z,10.03
2018-11-14T01:40:23.981Z,10.37
2018-11-14T01:42:54.152Z,9.33
2018-11-14T01:45:23.981Z,10.93
2018-11-14T01:47:53.310Z,10.27
2018-11-14T01:50:22.685Z,10.63
2018-11-14T01:52:51.582Z,10.07
2018-11-14T01:55:21.779Z,9.53
2018-11-14T01:57:50.785Z,10.50
2018-11-14T02:00:21.162Z,9.17
2018-11-14T02:02:50.341Z,9.03
2018-11-14T02:05:19.211Z,9.43
2018-11-14T02:07:48.025Z,9.20
2018-11-14T02:10:18.825Z,9.30
2018-11-14T02:12:47.963Z,10.10
2018-11-14T02:15:18.152Z,9.63
2018-11-14T02:17:47.432Z,8.87
2018-11-14T02:20:16.759Z,8.40
2018-11-14T02:22:46.004Z,8.87
2018-11-14T02:25:15.544Z,9.50
2018-11-14T02:27:44.433Z,8.83
2018-11-14T02:30:15.387Z,9.20
2018-11-14T02:32:44.397Z,9.67
2018-11-14T02:35:20.167Z,9.10
2018-11-14T02:37:49.771Z,9.13
2018-11-14T02:40:19.799Z,8.97
2018-11-14T02:42:48.989Z,8.73
2018-11-14T02:45:18.254Z,8.53
2018-11-14T02:47:47.047Z,8.97
2018-11-14T02:50:16.954Z,8.90
2018-11-14T02:52:46.249Z,8.17
2018-11-14T02:55:16.237Z,9.40
2018-11-14T02:57:45.382Z,9.17
2018-11-14T03:00:16.897Z,8.07
2018-11-14T03:02:45.768Z,8.27
2018-11-14T03:05:14.859Z,8.50
2018-11-14T03:07:43.726Z,8.17
2018-11-14T03:10:16.416Z,8.60
2018-11-14T03:12:45.471Z,8.57
2018-11-14T03:15:16.647Z,7.83
2018-11-14T03:17:46.638Z,8.10
2018-11-14T03:20:17.836Z,8.40
2018-11-14T03:22:47.290Z,7.87
2018-11-14T03:25:16.170Z,8.13
2018-11-14T03:27:45.047Z,7.87
2018-11-14T03:30:16.518Z,7.63
2018-11-14T03:32:45.803Z,8.90
2018-11-14T03:35:15.225Z,7.67
2018-11-14T03:37:44.678Z,7.17
2018-11-14T03:40:15.543Z,7.87
2018-11-14T03:42:44.327Z,8.13
2018-11-14T03:45:14.475Z,8.07
2018-11-14T03:47:43.323Z,7.70
2018-11-14T03:50:12.158Z,7.63
2018-11-14T03:52:41.980Z,7.67
2018-11-14T03:55:10.791Z,7.63
2018-11-14T03:57:39.577Z,6.80
2018-11-14T04:00:10.939Z,7.63
2018-11-14T04:02:39.700Z,7.43
2018-11-14T04:05:08.854Z,7.10
2018-11-14T04:07:38.435Z,7.37
2018-11-14T04:10:08.577Z,7.67
2018-11-14T04:12:37.448Z,7.13
2018-11-14T04:15:07.681Z,7.00
2018-11-14T04:17:37.005Z,7.37
2018-11-14T04:20:07.371Z,7.20
2018-11-14T04:22:36.969Z,6.07
2018-11-14T04:25:07.316Z,7.13
2018-11-14T04:27:36.078Z,7.40
2018-11-14T04:30:07.949Z,6.63
2018-11-14T04:32:36.765Z,7.03
2018-11-14T04:35:06.930Z,7.10
2018-11-14T04:37:36.519Z,6.13
2018-11-14T04:40:06.756Z,6.70
2018-11-14T04:42:35.637Z,6.73
2018-11-14T04:45:04.770Z,6.40
2018-11-14T04:47:34.155Z,6.80
2018-11-14T04:50:02.959Z,6.30
2018-11-14T04:52:32.366Z,6.67
2018-11-14T04:55:01.645Z,6.43
2018-11-14T04:57:30.484Z,6.37
2018-11-14T04:59:59.866Z,6.23
2018-11-14T05:02:29.026Z,5.93
2018-11-14T05:04:57.764Z,5.90
2018-11-14T05:07:26.842Z,6.30
2018-11-14T05:09:55.889Z,6.37
2018-11-14T05:12:25.143Z,6.40
2018-11-14T05:14:54.013Z,6.40
2018-11-14T05:17:23.191Z,5.90
2018-11-14T05:19:51.992Z,6.40
2018-11-14T05:22:21.427Z,5.83
2018-11-14T05:24:50.826Z,5.40
2018-11-14T05:27:19.645Z,6.20
2018-11-14T05:29:48.726Z,5.70
2018-11-14T05:32:18.061Z,6.17
2018-11-14T05:34:46.869Z,4.97
2018-11-14T05:37:15.786Z,5.67
2018-11-14T05:39:45.135Z,5.20
2018-11-14T05:42:13.894Z,5.43
2018-11-14T05:44:42.976Z,6.13
2018-11-14T05:47:12.023Z,5.50
2018-11-14T05:49:40.816Z,5.87
2018-11-14T05:52:09.978Z,5.70
2018-11-14T05:54:39.298Z,6.10
2018-11-14T05:57:08.325Z,6.17
2018-11-14T05:59:37.865Z,6.00
2018-11-14T06:02:06.915Z,5.50
2018-11-14T06:04:35.716Z,6.03
2018-11-14T06:07:04.881Z,6.17
2018-11-14T06:09:33.849Z,7.73
2018-11-14T06:12:02.681Z,6.80
2018-11-14T06:14:31.538Z,9.90
2018-11-14T06:17:00.878Z,6.63
2018-11-14T06:19:29.733Z,7.00
2018-11-14T06:21:58.949Z,6.70
2018-11-14T06:24:28.157Z,7.30
2018-11-14T06:26:56.970Z,8.60
2018-11-14T06:29:26.108Z,8.93
2018-11-14T06:31:54.979Z,7.00
2018-11-14T06:34:23.780Z,7.93
2018-11-14T06:36:52.775Z,8.57
2018-11-14T06:39:21.812Z,11.13
2018-11-14T06:41:57.224Z,8.10
2018-11-14T06:44:26.261Z,6.80
2018-11-14T06:46:55.001Z,7.43
2018-11-14T06:49:24.202Z,7.00
2018-11-14T06:51:53.227Z,7.97
2018-11-14T06:54:21.991Z,11.50
2018-11-14T06:56:51.177Z,10.30
2018-11-14T06:59:20.342Z,10.73
2018-11-14T07:01:49.060Z,8.67
2018-11-14T07:04:18.566Z,6.43
2018-11-14T07:06:54.268Z,7.30
2018-11-14T07:09:23.619Z,7.83
2018-11-14T07:11:52.442Z,8.47
2018-11-14T07:14:21.557Z,7.27
2018-11-14T07:16:50.813Z,7.50
2018-11-14T07:19:19.606Z,7.50
2018-11-14T07:21:48.802Z,6.53
2018-11-14T07:24:18.213Z,7.33
2018-11-14T07:26:47.003Z,7.03
2018-11-14T07:29:16.125Z,6.27
2018-11-14T07:31:45.485Z,6.67
2018-11-14T07:34:14.288Z,7.57
2018-11-14T07:36:43.540Z,6.07
2018-11-14T07:39:12.680Z,6.70
2018-11-14T07:41:41.851Z,7.20
2018-11-14T07:44:10.708Z,6.17
2018-11-14T07:46:39.971Z,6.20
2018-11-14T07:49:08.810Z,5.63
2018-11-14T07:51:37.649Z,6.03
2018-11-14T07:54:06.747Z,6.57
2018-11-14T07:56:35.527Z,6.37
2018-11-14T07:59:04.668Z,7.13
2018-11-14T08:01:33.927Z,6.17
2018-11-14T08:04:03.232Z,6.53
2018-11-14T08:06:32.264Z,7.70
2018-11-14T08:09:01.627Z,6.03
2018-11-14T08:11:30.440Z,5.67
2018-11-14T08:13:59.559Z,5.57
2018-11-14T08:16:28.818Z,6.80
2018-11-14T08:18:57.651Z,6.03
2018-11-14T08:21:26.444Z,6.67
2018-11-14T08:23:55.334Z,6.40
2018-11-14T08:26:24.099Z,6.00
2018-11-14T08:28:53.268Z,5.43
2018-11-14T08:31:22.471Z,6.73
2018-11-14T08:33:51.220Z,5.53
2018-11-14T08:36:20.561Z,7.77
2018-11-14T08:38:49.760Z,7.10
2018-11-14T08:41:18.513Z,5.90
2018-11-14T08:43:47.851Z,7.70
2018-11-14T08:46:16.789Z,6.40
2018-11-14T08:48:46.529Z,6.80
2018-11-14T08:51:15.747Z,8.07
2018-11-14T08:53:45.050Z,7.93
2018-11-14T08:56:13.814Z,6.63
2018-11-14T08:58:43.058Z,6.10
2018-11-14T09:01:12.252Z,6.87
2018-11-14T09:03:41.037Z,6.23
2018-11-14T09:06:09.989Z,7.13
2018-11-14T09:08:38.864Z,7.50
2018-11-14T09:11:07.764Z,7.77
2018-11-14T09:13:36.945Z,6.20
2018-11-14T09:16:06.512Z,5.90
2018-11-14T09:18:35.330Z,7.50
2018-11-14T09:21:04.297Z,7.87
2018-11-14T09:23:33.499Z,6.20
2018-11-14T09:26:02.343Z,5.43
2018-11-14T09:28:31.536Z,6.30
2018-11-14T09:31:00.573Z,6.87
2018-11-14T09:33:29.420Z,5.17
2018-11-14T09:35:58.536Z,6.67
2018-11-14T09:38:27.865Z,9.00
2018-11-14T09:40:56.777Z,5.87
2018-11-14T09:43:25.556Z,5.37
2018-11-14T09:45:54.744Z,5.10
2018-11-14T09:48:23.582Z,8.80
2018-11-14T09:50:52.790Z,6.23
2018-11-14T09:53:22.089Z,7.97
2018-11-14T09:55:50.868Z,7.30
2018-11-14T09:58:19.854Z,9.70
2018-11-14T10:00:48.836Z,7.10
2018-11-14T10:03:18.108Z,7.13
2018-11-14T10:05:48.001Z,9.93
2018-11-14T10:08:16.745Z,7.37
2018-11-14T10:10:45.561Z,9.03
2018-11-14T10:13:14.507Z,7.57
2018-11-14T10:15:43.397Z,10.13
2018-11-14T10:18:12.098Z,8.53
2018-11-14T10:20:41.888Z,8.77
2018-11-14T10:23:10.630Z,7.20
2018-11-14T10:25:39.439Z,7.37
2018-11-14T10:28:08.971Z,7.70
2018-11-14T10:30:37.722Z,7.73
2018-11-14T10:33:06.554Z,7.60
2018-11-14T10:35:36.467Z,7.77
2018-11-14T10:38:05.738Z,8.33
2018-11-14T10:40:34.561Z,6.37
2018-11-14T10:43:04.175Z,8.03
2018-11-14T10:45:36.463Z,9.23
2018-11-14T10:48:05.533Z,7.33
2018-11-14T10:50:34.321Z,7.83
2018-11-14T10:53:03.149Z,7.67
2018-11-14T10:55:32.406Z,6.57
2018-11-14T10:58:01.224Z,9.13
2018-11-14T11:00:35.626Z,5.87
2018-11-14T11:03:09.585Z,8.97
2018-11-14T11:05:43.834Z,10.07
2018-11-14T11:08:18.845Z,7.87
2018-11-14T11:10:53.407Z,8.37
2018-11-14T11:13:27.426Z,6.93
2018-11-14T11:16:01.846Z,8.97
2018-11-14T11:18:32.141Z,8.43
2018-11-14T11:21:01.291Z,6.73
2018-11-14T11:23:32.780Z,5.93
2018-11-14T11:26:01.557Z,8.47
2018-11-14T11:28:30.415Z,6.80
2018-11-14T11:31:00.122Z,8.50
2018-11-14T11:33:28.910Z,6.77
2018-11-14T11:35:57.702Z,6.20
2018-11-14T11:38:27.091Z,6.23
2018-11-14T11:40:55.873Z,7.63
2018-11-14T11:43:26.133Z,8.17
2018-11-14T11:45:55.651Z,6.07
2018-11-14T11:48:24.497Z,8.03
2018-11-14T11:50:53.353Z,6.13
2018-11-14T11:53:22.443Z,5.77
2018-11-14T11:55:51.292Z,5.90
2018-11-14T11:58:20.113Z,5.30
2018-11-14T12:00:49.155Z,5.80
2018-11-14T12:03:17.874Z,5.40
2018-11-14T12:05:46.672Z,5.00
2018-11-14T12:08:15.942Z,5.40
2018-11-14T12:10:45.023Z,6.57
2018-11-14T12:13:13.873Z,7.17
2018-11-14T12:15:43.323Z,6.97
2018-11-14T12:18:12.388Z,6.70
2018-11-14T12:20:41.429Z,6.40
2018-11-14T12:23:11.139Z,6.23
2018-11-14T12:25:40.292Z,5.63
2018-11-14T12:28:09.195Z,5.50
2018-11-14T12:30:38.946Z,6.23
2018-11-14T12:33:07.544Z,6.10
2018-11-14T12:35:36.450Z,6.37
2018-11-14T12:38:05.583Z,5.97
2018-11-14T12:40:34.361Z,6.10
2018-11-14T12:43:03.227Z,8.17
2018-11-14T12:45:32.692Z,5.93
2018-11-14T12:48:01.928Z,8.17
2018-11-14T12:50:31.415Z,5.60
2018-11-14T12:53:00.544Z,6.43
2018-11-14T12:55:29.668Z,9.20
2018-11-14T12:58:06.050Z,6.20
2018-11-14T13:00:34.856Z,7.43
2018-11-14T13:03:03.681Z,6.10
2018-11-14T13:05:35.783Z,5.27
2018-11-14T13:08:04.553Z,5.90
2018-11-14T13:10:33.344Z,5.60
2018-11-14T13:13:02.431Z,6.97
2018-11-14T13:15:31.176Z,5.33
2018-11-14T13:17:59.912Z,5.17
2018-11-14T13:20:29.660Z,6.60
2018-11-14T13:22:58.411Z,8.80
2018-11-14T13:25:27.165Z,5.77
2018-11-14T13:27:56.653Z,5.87
2018-11-14T13:30:25.469Z,5.10
2018-11-14T13:32:54.645Z,5.60
2018-11-14T13:35:24.499Z,5.13
2018-11-14T13:37:53.139Z,5.57
2018-11-14T13:40:22.429Z,5.57
2018-11-14T13:42:51.441Z,4.57
2018-11-14T13:45:20.472Z,6.67
2018-11-14T13:47:49.222Z,7.17
2018-11-14T13:50:20.548Z,5.57
2018-11-14T13:52:49.150Z,9.03
2018-11-14T13:55:18.884Z,11.97
2018-11-14T13:57:49.265Z,15.63
2018-11-14T14:00:19.206Z,16.83
2018-11-14T14:02:48.664Z,23.80
2018-11-14T14:05:18.946Z,18.57
2018-11-14T14:07:47.730Z,21.30
2018-11-14T14:10:17.303Z,80.40
2018-11-14T14:12:47.759Z,52.33
2018-11-14T14:15:26.503Z,44.53
2018-11-14T14:17:55.574Z,31.07
2018-11-14T14:20:24.881Z,29.50
2018-11-14T14:22:53.765Z,28.37
2018-11-14T14:25:23.879Z,27.97
2018-11-14T14:27:52.876Z,27.53
2018-11-14T14:30:22.978Z,20.83
2018-11-14T14:32:52.094Z,18.03
2018-11-14T14:35:22.123Z,21.33
2018-11-14T14:37:51.605Z,21.63
2018-11-14T14:40:21.867Z,15.43
2018-11-14T14:42:50.847Z,17.23
2018-11-14T14:45:22.518Z,17.93
2018-11-14T14:47:51.412Z,15.90
2018-11-14T14:50:20.801Z,15.07
2018-11-14T14:52:50.763Z,15.00
2018-11-14T14:55:21.870Z,15.43
2018-11-14T14:57:50.746Z,12.43
2018-11-14T15:00:27.873Z,14.93
2018-11-14T15:02:58.757Z,16.60
2018-11-14T15:05:27.745Z,12.93
2018-11-14T15:07:57.047Z,11.77
2018-11-14T15:10:28.611Z,13.37
2018-11-14T15:13:02.640Z,16.27
2018-11-14T15:15:32.041Z,14.43
2018-11-14T15:18:00.832Z,11.20
2018-11-14T15:20:29.730Z,10.20
2018-11-14T15:22:59.067Z,12.07
2018-11-14T15:25:27.873Z,11.83
2018-11-14T15:27:56.748Z,12.07
2018-11-14T15:30:28.683Z,12.67
2018-11-14T15:32:57.942Z,8.60
2018-11-14T15:35:26.746Z,13.80
2018-11-14T15:37:55.975Z,11.83
2018-11-14T15:40:26.164Z,10.77
2018-11-14T15:42:55.073Z,11.07
2018-11-14T15:45:25.231Z,9.97
2018-11-14T15:47:54.366Z,9.67
2018-11-14T15:50:24.962Z,11.27
2018-11-14T15:52:54.832Z,12.37
2018-11-14T15:55:24.432Z,9.07
2018-11-14T15:57:53.642Z,12.03
2018-11-14T16:00:27.770Z,11.90
2018-11-14T16:02:56.725Z,12.00
2018-11-14T16:05:26.927Z,9.33
2018-11-14T16:07:57.737Z,10.37
2018-11-14T16:10:27.675Z,7.50
2018-11-14T16:12:56.697Z,8.13
2018-11-14T16:15:30.019Z,7.97
2018-11-14T16:17:59.344Z,10.80
2018-11-14T16:20:28.611Z,9.43
2018-11-14T16:22:57.614Z,11.57
2018-11-14T16:25:27.382Z,8.90
2018-11-14T16:27:58.591Z,9.20
2018-11-14T16:30:32.633Z,7.87
2018-11-14T16:33:03.307Z,11.17
2018-11-14T16:35:32.388Z,7.77
2018-11-14T16:38:01.217Z,10.83
2018-11-14T16:40:31.601Z,9.80
2018-11-14T16:43:01.665Z,8.80
2018-11-14T16:45:30.711Z,8.07
2018-11-14T16:48:00.031Z,9.43
2018-11-14T16:50:29.092Z,11.13
2018-11-14T16:52:57.863Z,7.10
2018-11-14T16:55:26.836Z,8.93
2018-11-14T16:57:56.307Z,8.80
2018-11-14T17:00:26.426Z,9.47
2018-11-14T17:02:56.509Z,13.10
2018-11-14T17:05:26.384Z,11.20
2018-11-14T17:07:55.176Z,9.57
2018-11-14T17:10:24.674Z,8.57
2018-11-14T17:12:54.942Z,8.27
2018-11-14T17:15:24.788Z,9.23
2018-11-14T17:17:54.398Z,11.00
2018-11-14T17:20:23.776Z,11.10
2018-11-14T17:22:53.528Z,7.63
2018-11-14T17:25:22.918Z,11.63
2018-11-14T17:27:51.713Z,10.10
2018-11-14T17:30:21.869Z,9.83
2018-11-14T17:32:51.166Z,14.00
2018-11-14T17:35:19.955Z,17.73
2018-11-14T17:37:49.134Z,11.67
2018-11-14T17:40:31.996Z,16.17
2018-11-14T17:43:01.442Z,12.77
2018-11-14T17:45:31.856Z,10.67
2018-11-14T17:48:03.163Z,12.63
2018-11-14T17:50:33.698Z,13.47
2018-11-14T17:53:04.422Z,14.17
2018-11-14T17:55:33.781Z,15.80
2018-11-14T17:58:02.892Z,13.47
2018-11-14T18:00:32.532Z,12.77
2018-11-14T18:03:02.040Z,14.67
2018-11-14T18:05:32.973Z,12.07
2018-11-14T18:08:01.814Z,12.67
2018-11-14T18:10:32.283Z,11.23
2018-11-14T18:13:02.217Z,11.10
2018-11-14T18:15:31.447Z,12.87
2018-11-14T18:18:00.917Z,11.30
2018-11-14T18:20:31.541Z,9.33
2018-11-14T18:23:00.509Z,11.43
2018-11-14T18:25:29.465Z,12.60
2018-11-14T18:27:58.798Z,18.30
2018-11-14T18:30:29.625Z,14.37
2018-11-14T18:32:59.572Z,12.27
2018-11-14T18:35:28.708Z,14.23
2018-11-14T18:37:58.368Z,15.07
2018-11-14T18:40:28.988Z,12.47
2018-11-14T18:42:58.006Z,9.57
2018-11-14T18:45:31.684Z,13.33
2018-11-14T18:48:01.245Z,10.53
2018-11-14T18:50:30.623Z,12.20
2018-11-14T18:52:59.584Z,11.93
2018-11-14T18:55:29.831Z,10.50
2018-11-14T18:57:59.316Z,10.83
2018-11-14T19:00:29.450Z,10.90
2018-11-14T19:02:58.600Z,11.20
2018-11-14T19:05:27.457Z,11.00
2018-11-14T19:07:56.516Z,9.83
2018-11-14T19:10:27.841Z,11.33
2018-11-14T19:12:56.664Z,10.80
2018-11-14T19:15:28.284Z,10.57
2018-11-14T19:17:57.700Z,9.47
2018-11-14T19:20:27.770Z,10.73
2018-11-14T19:22:57.632Z,10.47
2018-11-14T19:25:29.010Z,9.83
2018-11-14T19:27:57.886Z,9.73
2018-11-14T19:30:28.662Z,9.27
2018-11-14T19:32:58.078Z,9.20
2018-11-14T19:35:27.097Z,9.23
2018-11-14T19:37:57.044Z,8.27
2018-11-14T19:40:28.161Z,7.63
2018-11-14T19:42:58.713Z,7.57
2018-11-14T19:45:29.451Z,9.43
2018-11-14T19:47:58.341Z,7.50
2018-11-14T19:50:28.004Z,8.43
2018-11-14T19:52:57.247Z,12.47
2018-11-14T19:55:27.010Z,7.27
2018-11-14T19:58:02.040Z,7.07
2018-11-14T20:00:33.751Z,9.97
2018-11-14T20:03:03.359Z,8.47
2018-11-14T20:05:34.296Z,9.50
2018-11-14T20:08:03.465Z,8.83
2018-11-14T20:10:34.102Z,7.47
2018-11-14T20:13:03.064Z,9.93
2018-11-14T20:15:34.828Z,12.47
2018-11-14T20:18:04.942Z,8.40
2018-11-14T20:20:35.526Z,10.77
2018-11-14T20:23:04.824Z,9.93
2018-11-14T20:25:33.720Z,7.60
2018-11-14T20:28:03.737Z,9.37
2018-11-14T20:30:34.187Z,10.67
2018-11-14T20:33:05.472Z,11.13
2018-11-14T20:35:34.589Z,10.13
2018-11-14T20:41:13.715Z,12.20
2018-11-14T20:43:42.512Z,11.80
2018-11-14T20:46:11.695Z,11.83
2018-11-14T20:48:41.115Z,12.07
2018-11-14T20:51:10.219Z,10.20
2018-11-14T20:53:39.514Z,9.73
2018-11-14T20:56:09.025Z,9.40
2018-11-14T20:58:38.430Z,8.40
2018-11-14T21:01:07.489Z,8.43
2018-11-14T21:03:36.763Z,9.50
2018-11-14T21:06:06.020Z,9.97
2018-11-14T21:08:36.128Z,10.60
2018-11-14T21:11:05.991Z,12.73
2018-11-14T21:13:37.578Z,7.97
2018-11-14T21:16:06.965Z,8.73
2018-11-14T21:18:37.662Z,9.40
2018-11-14T21:21:08.663Z,9.20
2018-11-14T21:23:41.973Z,7.23
2018-11-14T21:26:11.551Z,7.60
2018-11-14T21:28:41.478Z,8.47
2018-11-14T21:31:11.820Z,9.90
2018-11-14T21:33:42.451Z,10.07
2018-11-14T21:36:12.229Z,11.43
2018-11-14T21:38:41.520Z,8.17
2018-11-14T21:41:10.582Z,8.70
2018-11-14T21:43:39.491Z,7.73
2018-11-14T21:46:08.296Z,8.53
2018-11-14T21:48:37.146Z,6.90
2018-11-14T21:51:12.633Z,7.70
2018-11-14T21:53:41.533Z,8.00
2018-11-14T21:56:10.358Z,7.97
2018-11-14T21:58:39.636Z,6.47
2018-11-14T22:01:08.743Z,6.87
2018-11-14T22:03:37.513Z,7.27
2018-11-14T22:06:06.600Z,6.80
2018-11-14T22:08:35.680Z,8.43
2018-11-14T22:11:04.443Z,8.93
2018-11-14T22:13:33.576Z,9.20
2018-11-14T22:16:03.304Z,6.80
2018-11-14T22:18:32.964Z,7.33
2018-11-14T22:21:07.082Z,7.03
2018-11-14T22:23:35.869Z,7.27
2018-11-14T22:26:04.658Z,8.03
2018-11-14T22:28:33.625Z,7.03
2018-11-14T22:31:02.479Z,8.77
2018-11-14T22:33:31.296Z,8.20
2018-11-14T22:36:00.664Z,7.20
2018-11-14T22:38:29.482Z,8.27
2018-11-14T22:40:58.258Z,7.93
2018-11-14T22:43:27.747Z,6.47
2018-11-14T22:45:56.539Z,7.20
2018-11-14T22:48:25.292Z,7.43
2018-11-14T22:50:54.635Z,6.17
2018-11-14T22:53:23.429Z,9.93
2018-11-14T22:55:52.173Z,8.47
2018-11-14T22:58:21.712Z,7.33
2018-11-14T23:00:50.499Z,8.77
2018-11-14T23:03:19.286Z,8.10
2018-11-14T23:05:48.600Z,8.57
2018-11-14T23:08:17.376Z,7.80
2018-11-14T23:10:46.135Z,6.87
2018-11-14T23:13:15.600Z,8.17
2018-11-14T23:15:44.451Z,6.57
2018-11-14T23:18:13.169Z,6.97
2018-11-14T23:20:42.869Z,8.50
2018-11-14T23:23:11.740Z,6.93
2018-11-14T23:25:40.442Z,8.20
2018-11-14T23:28:09.449Z,6.70
2018-11-14T23:30:38.222Z,6.87
2018-11-14T23:33:06.990Z,7.17
2018-11-14T23:35:36.929Z,7.60
2018-11-14T23:38:06.548Z,7.80
2018-11-14T23:40:35.303Z,6.87
2018-11-14T23:43:04.834Z,6.73
2018-11-14T23:45:33.591Z,6.90
2018-11-14T23:48:02.461Z,6.07
2018-11-14T23:50:32.637Z,7.30
2018-11-14T23:53:02.104Z,7.20
2018-11-14T23:55:31.457Z,7.70
2018-11-14T23:58:00.690Z,9.27
